sensor_id;sensor_type;location;lat;lon;timestamp;pressure;altitude;pressure_sealevel;temperature;humidity
15674;BME280;7937;48.090;16.212;2023-12-22T00:02:56;95550.91;;;4.69;100.00
15674;BME280;7937;48.090;16.212;2023-12-22T00:05:58;95614.38;;;5.10;98.30
15674;BME280;7937;48.090;16.212;2023-12-22T00:09:00;95601.97;;;5.05;100.00
15674;BME280;7937;48.090;16.212;2023-12-22T00:12:03;95629.66;;;4.98;100.00
15674;BME280;7937;48.090;16.212;2023-12-22T00:15:05;95628.75;;;5.34;91.23
15674;BME280;7937;48.090;16.212;2023-12-22T00:18:07;95626.13;;;5.39;88.92
15674;BME280;7937;48.090;16.212;2023-12-22T00:21:10;95649.09;;;5.44;85.22
15674;BME280;7937;48.090;16.212;2023-12-22T00:24:12;95664.66;;;5.35;87.63
15674;BME280;7937;48.090;16.212;2023-12-22T00:27:14;95656.19;;;5.28;88.10
15674;BME280;7937;48.090;16.212;2023-12-22T00:30:16;95662.72;;;5.15;93.04
15674;BME280;7937;48.090;16.212;2023-12-22T00:33:18;95640.41;;;4.91;100.00
15674;BME280;7937;48.090;16.212;2023-12-22T00:36:20;95644.97;;;4.53;100.00
15674;BME280;7937;48.090;16.212;2023-12-22T00:39:26;95629.28;;;4.79;94.96
15674;BME280;7937;48.090;16.212;2023-12-22T00:42:28;95598.81;;;4.56;100.00
15674;BME280;7937;48.090;16.212;2023-12-22T00:45:30;95606.81;;;4.71;94.01
15674;BME280;7937;48.090;16.212;2023-12-22T00:48:32;95602.81;;;4.58;94.20
15674;BME280;7937;48.090;16.212;2023-12-22T00:51:34;95618.88;;;4.62;97.75
15674;BME280;7937;48.090;16.212;2023-12-22T00:54:37;95630.06;;;4.79;91.61
15674;BME280;7937;48.090;16.212;2023-12-22T00:57:38;95634.00;;;4.77;93.36
15674;BME280;7937;48.090;16.212;2023-12-22T01:00:40;95648.84;;;4.83;91.88
15674;BME280;7937;48.090;16.212;2023-12-22T01:03:42;95663.22;;;4.65;93.85
15674;BME280;7937;48.090;16.212;2023-12-22T01:06:44;95674.44;;;4.92;90.36
15674;BME280;7937;48.090;16.212;2023-12-22T01:09:46;95647.81;;;4.89;87.52
15674;BME280;7937;48.090;16.212;2023-12-22T01:12:48;95663.56;;;4.79;90.52
15674;BME280;7937;48.090;16.212;2023-12-22T01:15:50;95632.78;;;4.95;86.35
15674;BME280;7937;48.090;16.212;2023-12-22T01:18:53;95649.19;;;5.07;83.53
15674;BME280;7937;48.090;16.212;2023-12-22T01:21:55;95623.56;;;4.97;87.42
15674;BME280;7937;48.090;16.212;2023-12-22T01:24:57;95625.38;;;4.91;84.90
15674;BME280;7937;48.090;16.212;2023-12-22T01:27:59;95659.47;;;4.98;82.39
15674;BME280;7937;48.090;16.212;2023-12-22T01:31:04;95647.25;;;4.87;89.66
15674;BME280;7937;48.090;16.212;2023-12-22T01:34:05;95659.97;;;4.95;87.83
15674;BME280;7937;48.090;16.212;2023-12-22T01:37:09;95651.28;;;4.57;88.44
15674;BME280;7937;48.090;16.212;2023-12-22T01:40:11;95648.88;;;4.93;83.43
15674;BME280;7937;48.090;16.212;2023-12-22T01:43:13;95638.56;;;4.91;82.47
15674;BME280;7937;48.090;16.212;2023-12-22T01:46:16;95629.38;;;4.99;82.56
15674;BME280;7937;48.090;16.212;2023-12-22T01:49:20;95642.25;;;4.85;87.51
15674;BME280;7937;48.090;16.212;2023-12-22T01:52:24;95675.97;;;4.78;86.69
15674;BME280;7937;48.090;16.212;2023-12-22T01:55:27;95676.16;;;5.14;83.69
15674;BME280;7937;48.090;16.212;2023-12-22T01:58:30;95653.44;;;5.03;88.77
15674;BME280;7937;48.090;16.212;2023-12-22T02:01:41;95648.22;;;4.71;90.78
15674;BME280;7937;48.090;16.212;2023-12-22T02:04:46;95650.53;;;4.62;91.22
15674;BME280;7937;48.090;16.212;2023-12-22T02:07:49;95672.69;;;4.61;93.63
15674;BME280;7937;48.090;16.212;2023-12-22T02:10:51;95688.47;;;4.56;92.75
15674;BME280;7937;48.090;16.212;2023-12-22T02:13:53;95690.84;;;4.57;91.69
15674;BME280;7937;48.090;16.212;2023-12-22T02:17:06;95702.34;;;4.78;89.24
15674;BME280;7937;48.090;16.212;2023-12-22T02:20:12;95693.97;;;4.91;86.00
15674;BME280;7937;48.090;16.212;2023-12-22T02:23:14;95690.53;;;4.91;84.11
15674;BME280;7937;48.090;16.212;2023-12-22T02:26:34;95701.03;;;5.23;77.15
15674;BME280;7937;48.090;16.212;2023-12-22T02:29:42;95687.53;;;5.20;77.69
15674;BME280;7937;48.090;16.212;2023-12-22T02:32:48;95655.00;;;5.04;78.32
15674;BME280;7937;48.090;16.212;2023-12-22T02:35:51;95672.34;;;4.89;80.52
15674;BME280;7937;48.090;16.212;2023-12-22T02:38:56;95686.59;;;4.88;82.77
15674;BME280;7937;48.090;16.212;2023-12-22T02:41:59;95709.22;;;4.79;80.24
15674;BME280;7937;48.090;16.212;2023-12-22T02:45:03;95693.09;;;4.76;80.40
15674;BME280;7937;48.090;16.212;2023-12-22T02:48:05;95732.09;;;4.69;79.51
15674;BME280;7937;48.090;16.212;2023-12-22T02:51:07;95709.03;;;4.96;78.89
15674;BME280;7937;48.090;16.212;2023-12-22T02:54:09;95725.88;;;4.85;84.48
15674;BME280;7937;48.090;16.212;2023-12-22T02:57:11;95717.78;;;4.59;83.85
15674;BME280;7937;48.090;16.212;2023-12-22T03:00:13;95730.66;;;4.56;87.33
15674;BME280;7937;48.090;16.212;2023-12-22T03:03:15;95707.25;;;4.32;87.21
15674;BME280;7937;48.090;16.212;2023-12-22T03:06:17;95698.06;;;4.35;86.92
15674;BME280;7937;48.090;16.212;2023-12-22T03:09:19;95675.56;;;4.27;91.60
15674;BME280;7937;48.090;16.212;2023-12-22T03:12:22;95680.94;;;4.05;95.04
15674;BME280;7937;48.090;16.212;2023-12-22T03:15:23;95720.63;;;3.99;92.54
15674;BME280;7937;48.090;16.212;2023-12-22T03:18:25;95719.72;;;3.88;95.06
15674;BME280;7937;48.090;16.212;2023-12-22T03:21:27;95742.59;;;3.82;92.44
15674;BME280;7937;48.090;16.212;2023-12-22T03:24:31;95745.97;;;3.78;93.23
15674;BME280;7937;48.090;16.212;2023-12-22T03:27:33;95725.72;;;4.05;89.69
15674;BME280;7937;48.090;16.212;2023-12-22T03:30:36;95702.03;;;3.83;91.99
15674;BME280;7937;48.090;16.212;2023-12-22T03:33:39;95693.28;;;3.78;92.56
15674;BME280;7937;48.090;16.212;2023-12-22T03:36:41;95729.97;;;3.62;93.84
15674;BME280;7937;48.090;16.212;2023-12-22T03:39:43;95733.09;;;3.59;99.49
15674;BME280;7937;48.090;16.212;2023-12-22T03:42:45;95751.97;;;3.51;100.00
15674;BME280;7937;48.090;16.212;2023-12-22T03:45:47;95746.88;;;3.45;100.00
15674;BME280;7937;48.090;16.212;2023-12-22T03:48:52;95733.47;;;3.46;100.00
15674;BME280;7937;48.090;16.212;2023-12-22T03:51:54;95736.50;;;3.16;100.00
15674;BME280;7937;48.090;16.212;2023-12-22T03:54:55;95752.38;;;3.04;100.00
15674;BME280;7937;48.090;16.212;2023-12-22T03:57:57;95747.63;;;3.01;100.00
15674;BME280;7937;48.090;16.212;2023-12-22T04:00:59;95723.56;;;2.93;100.00
15674;BME280;7937;48.090;16.212;2023-12-22T04:04:01;95723.72;;;2.86;100.00
15674;BME280;7937;48.090;16.212;2023-12-22T04:07:03;95706.69;;;2.72;100.00
15674;BME280;7937;48.090;16.212;2023-12-22T04:10:05;95720.88;;;2.54;100.00
15674;BME280;7937;48.090;16.212;2023-12-22T04:13:08;95739.44;;;2.47;100.00
15674;BME280;7937;48.090;16.212;2023-12-22T04:16:09;95701.81;;;2.13;100.00
15674;BME280;7937;48.090;16.212;2023-12-22T04:19:11;95738.47;;;2.70;100.00
15674;BME280;7937;48.090;16.212;2023-12-22T04:22:13;95757.19;;;2.74;100.00
15674;BME280;7937;48.090;16.212;2023-12-22T04:25:15;95748.13;;;2.81;100.00
15674;BME280;7937;48.090;16.212;2023-12-22T04:28:18;95755.00;;;3.04;100.00
15674;BME280;7937;48.090;16.212;2023-12-22T04:31:20;95752.44;;;3.26;100.00
15674;BME280;7937;48.090;16.212;2023-12-22T04:34:22;95757.78;;;3.31;100.00
15674;BME280;7937;48.090;16.212;2023-12-22T04:37:23;95753.31;;;3.15;100.00
15674;BME280;7937;48.090;16.212;2023-12-22T04:40:26;95765.94;;;3.52;98.22
15674;BME280;7937;48.090;16.212;2023-12-22T04:43:30;95781.09;;;3.45;99.24
15674;BME280;7937;48.090;16.212;2023-12-22T04:46:31;95793.81;;;3.31;100.00
15674;BME280;7937;48.090;16.212;2023-12-22T04:49:33;95774.81;;;3.46;97.59
15674;BME280;7937;48.090;16.212;2023-12-22T04:52:35;95770.16;;;3.53;96.84
15674;BME280;7937;48.090;16.212;2023-12-22T04:55:38;95770.53;;;3.61;95.49
15674;BME280;7937;48.090;16.212;2023-12-22T04:58:40;95777.25;;;3.52;99.29
15674;BME280;7937;48.090;16.212;2023-12-22T05:01:42;95752.81;;;3.79;90.04
15674;BME280;7937;48.090;16.212;2023-12-22T05:04:44;95753.63;;;3.79;88.27
15674;BME280;7937;48.090;16.212;2023-12-22T05:07:47;95794.09;;;3.95;83.82
15674;BME280;7937;48.090;16.212;2023-12-22T05:10:49;95791.75;;;3.99;84.14
15674;BME280;7937;48.090;16.212;2023-12-22T05:13:51;95764.28;;;3.90;83.73
15674;BME280;7937;48.090;16.212;2023-12-22T05:16:53;95732.69;;;3.68;90.99
15674;BME280;7937;48.090;16.212;2023-12-22T05:19:57;95739.78;;;3.45;93.44
15674;BME280;7937;48.090;16.212;2023-12-22T05:22:59;95763.63;;;3.39;93.82
15674;BME280;7937;48.090;16.212;2023-12-22T05:26:01;95760.16;;;3.77;85.68
15674;BME280;7937;48.090;16.212;2023-12-22T05:29:03;95777.56;;;3.56;90.13
15674;BME280;7937;48.090;16.212;2023-12-22T05:32:06;95759.50;;;3.65;86.51
15674;BME280;7937;48.090;16.212;2023-12-22T05:35:08;95764.59;;;3.71;85.93
15674;BME280;7937;48.090;16.212;2023-12-22T05:38:12;95754.59;;;3.51;92.46
15674;BME280;7937;48.090;16.212;2023-12-22T05:41:14;95755.28;;;3.42;90.45
15674;BME280;7937;48.090;16.212;2023-12-22T05:44:15;95757.91;;;3.63;86.36
15674;BME280;7937;48.090;16.212;2023-12-22T05:47:18;95747.56;;;3.57;88.39
15674;BME280;7937;48.090;16.212;2023-12-22T05:50:20;95742.22;;;3.74;86.57
15674;BME280;7937;48.090;16.212;2023-12-22T05:53:22;95767.16;;;3.66;89.05
15674;BME280;7937;48.090;16.212;2023-12-22T05:56:24;95763.72;;;3.44;92.64
15674;BME280;7937;48.090;16.212;2023-12-22T05:59:26;95785.94;;;3.53;88.80
15674;BME280;7937;48.090;16.212;2023-12-22T06:02:30;95784.09;;;3.53;91.36
15674;BME280;7937;48.090;16.212;2023-12-22T06:05:32;95776.94;;;3.49;90.66
15674;BME280;7937;48.090;16.212;2023-12-22T06:08:34;95790.84;;;3.66;90.08
15674;BME280;7937;48.090;16.212;2023-12-22T06:11:35;95795.63;;;3.69;89.61
15674;BME280;7937;48.090;16.212;2023-12-22T06:14:37;95791.66;;;3.67;89.52
15674;BME280;7937;48.090;16.212;2023-12-22T06:17:39;95804.19;;;3.59;91.47
15674;BME280;7937;48.090;16.212;2023-12-22T06:20:41;95801.84;;;3.41;94.75
15674;BME280;7937;48.090;16.212;2023-12-22T06:23:43;95809.50;;;3.43;94.62
15674;BME280;7937;48.090;16.212;2023-12-22T06:26:46;95818.84;;;3.33;96.68
15674;BME280;7937;48.090;16.212;2023-12-22T06:29:48;95812.00;;;3.32;98.02
15674;BME280;7937;48.090;16.212;2023-12-22T06:32:50;95801.38;;;3.27;97.94
15674;BME280;7937;48.090;16.212;2023-12-22T06:35:53;95832.66;;;3.07;100.00
15674;BME280;7937;48.090;16.212;2023-12-22T06:38:55;95834.34;;;2.96;100.00
15674;BME280;7937;48.090;16.212;2023-12-22T06:41:57;95848.38;;;3.02;100.00
15674;BME280;7937;48.090;16.212;2023-12-22T06:44:59;95815.59;;;2.93;100.00
15674;BME280;7937;48.090;16.212;2023-12-22T06:48:01;95826.66;;;2.95;100.00
15674;BME280;7937;48.090;16.212;2023-12-22T06:51:03;95825.31;;;3.09;100.00
15674;BME280;7937;48.090;16.212;2023-12-22T06:54:05;95795.50;;;3.20;96.72
15674;BME280;7937;48.090;16.212;2023-12-22T06:57:07;95821.81;;;3.20;98.03
15674;BME280;7937;48.090;16.212;2023-12-22T07:00:10;95852.28;;;3.16;98.01
15674;BME280;7937;48.090;16.212;2023-12-22T07:03:12;95839.03;;;3.28;97.36
15674;BME280;7937;48.090;16.212;2023-12-22T07:06:19;95821.34;;;3.62;93.34
15674;BME280;7937;48.090;16.212;2023-12-22T07:12:23;95815.81;;;3.42;93.46
15674;BME280;7937;48.090;16.212;2023-12-22T07:15:25;95858.25;;;3.45;94.07
15674;BME280;7937;48.090;16.212;2023-12-22T07:18:28;95856.94;;;3.48;94.36
15674;BME280;7937;48.090;16.212;2023-12-22T07:21:33;95836.69;;;3.48;92.25
15674;BME280;7937;48.090;16.212;2023-12-22T07:24:35;95822.31;;;3.56;92.17
15674;BME280;7937;48.090;16.212;2023-12-22T07:27:37;95832.31;;;3.37;94.65
15674;BME280;7937;48.090;16.212;2023-12-22T07:30:39;95845.47;;;3.37;94.36
15674;BME280;7937;48.090;16.212;2023-12-22T07:33:40;95840.53;;;3.41;91.67
15674;BME280;7937;48.090;16.212;2023-12-22T07:36:43;95842.00;;;3.70;90.07
15674;BME280;7937;48.090;16.212;2023-12-22T07:39:55;95859.00;;;3.62;90.64
15674;BME280;7937;48.090;16.212;2023-12-22T07:42:59;95850.56;;;3.82;86.88
15674;BME280;7937;48.090;16.212;2023-12-22T07:46:01;95857.53;;;3.72;88.25
15674;BME280;7937;48.090;16.212;2023-12-22T07:49:04;95860.63;;;3.85;86.52
15674;BME280;7937;48.090;16.212;2023-12-22T07:52:06;95860.44;;;3.70;87.80
15674;BME280;7937;48.090;16.212;2023-12-22T07:55:09;95865.44;;;3.72;87.81
15674;BME280;7937;48.090;16.212;2023-12-22T07:58:13;95860.25;;;3.77;88.01
15674;BME280;7937;48.090;16.212;2023-12-22T08:01:15;95850.44;;;3.72;88.48
15674;BME280;7937;48.090;16.212;2023-12-22T08:04:17;95839.00;;;3.83;86.62
15674;BME280;7937;48.090;16.212;2023-12-22T08:07:20;95852.03;;;3.73;88.38
15674;BME280;7937;48.090;16.212;2023-12-22T08:10:22;95862.63;;;3.78;87.60
15674;BME280;7937;48.090;16.212;2023-12-22T08:13:24;95880.91;;;3.68;91.23
15674;BME280;7937;48.090;16.212;2023-12-22T08:16:25;95884.91;;;3.71;87.73
15674;BME280;7937;48.090;16.212;2023-12-22T08:19:27;95869.63;;;3.90;86.90
15674;BME280;7937;48.090;16.212;2023-12-22T08:22:32;95872.50;;;3.88;85.20
15674;BME280;7937;48.090;16.212;2023-12-22T08:25:34;95890.06;;;3.82;86.88
15674;BME280;7937;48.090;16.212;2023-12-22T08:28:37;95845.22;;;3.55;87.94
15674;BME280;7937;48.090;16.212;2023-12-22T08:31:40;95873.34;;;3.94;85.77
15674;BME280;7937;48.090;16.212;2023-12-22T08:34:42;95845.84;;;3.62;88.04
15674;BME280;7937;48.090;16.212;2023-12-22T08:37:43;95889.81;;;4.01;84.95
15674;BME280;7937;48.090;16.212;2023-12-22T08:40:45;95887.09;;;3.96;85.25
15674;BME280;7937;48.090;16.212;2023-12-22T08:43:47;95884.16;;;3.92;84.40
15674;BME280;7937;48.090;16.212;2023-12-22T08:46:49;95943.81;;;4.03;84.55
15674;BME280;7937;48.090;16.212;2023-12-22T08:49:51;95885.94;;;4.08;82.78
15674;BME280;7937;48.090;16.212;2023-12-22T08:52:53;95884.72;;;4.16;83.25
15674;BME280;7937;48.090;16.212;2023-12-22T08:55:55;95879.00;;;4.02;87.53
15674;BME280;7937;48.090;16.212;2023-12-22T08:58:58;95869.25;;;4.03;85.15
15674;BME280;7937;48.090;16.212;2023-12-22T09:02:02;95875.97;;;4.10;84.86
15674;BME280;7937;48.090;16.212;2023-12-22T09:05:04;95866.63;;;4.03;84.78
15674;BME280;7937;48.090;16.212;2023-12-22T09:08:09;95873.69;;;3.97;85.07
15674;BME280;7937;48.090;16.212;2023-12-22T09:11:12;95869.91;;;4.10;83.41
15674;BME280;7937;48.090;16.212;2023-12-22T09:14:16;95855.72;;;4.16;86.62
15674;BME280;7937;48.090;16.212;2023-12-22T09:17:18;95863.66;;;4.43;80.34
15674;BME280;7937;48.090;16.212;2023-12-22T09:20:20;95864.81;;;4.25;82.88
15674;BME280;7937;48.090;16.212;2023-12-22T09:23:22;95870.25;;;4.19;85.47
15674;BME280;7937;48.090;16.212;2023-12-22T09:26:24;95857.75;;;4.31;81.44
15674;BME280;7937;48.090;16.212;2023-12-22T09:29:31;95859.78;;;4.24;84.96
15674;BME280;7937;48.090;16.212;2023-12-22T09:32:37;95867.38;;;4.20;86.64
15674;BME280;7937;48.090;16.212;2023-12-22T09:35:39;95888.00;;;4.28;82.14
15674;BME280;7937;48.090;16.212;2023-12-22T09:38:43;95907.63;;;4.37;82.55
15674;BME280;7937;48.090;16.212;2023-12-22T09:41:48;95887.22;;;4.50;83.11
15674;BME280;7937;48.090;16.212;2023-12-22T09:44:53;95894.41;;;4.32;83.44
15674;BME280;7937;48.090;16.212;2023-12-22T09:47:59;95876.84;;;4.43;81.25
15674;BME280;7937;48.090;16.212;2023-12-22T09:51:02;95895.56;;;4.63;78.08
15674;BME280;7937;48.090;16.212;2023-12-22T09:54:04;95878.63;;;4.59;78.79
15674;BME280;7937;48.090;16.212;2023-12-22T09:57:07;95875.19;;;4.59;79.24
15674;BME280;7937;48.090;16.212;2023-12-22T10:00:23;95865.97;;;4.34;81.62
15674;BME280;7937;48.090;16.212;2023-12-22T10:03:25;95883.13;;;4.37;81.16
15674;BME280;7937;48.090;16.212;2023-12-22T10:06:28;95875.09;;;4.49;79.13
15674;BME280;7937;48.090;16.212;2023-12-22T10:09:31;95860.63;;;4.29;78.73
15674;BME280;7937;48.090;16.212;2023-12-22T10:12:34;95870.94;;;4.31;79.81
15674;BME280;7937;48.090;16.212;2023-12-22T10:15:39;95897.09;;;4.37;79.03
15674;BME280;7937;48.090;16.212;2023-12-22T10:18:44;95868.81;;;4.55;79.67
15674;BME280;7937;48.090;16.212;2023-12-22T10:21:48;95874.03;;;4.50;79.35
15674;BME280;7937;48.090;16.212;2023-12-22T10:24:50;95865.06;;;4.51;82.24
15674;BME280;7937;48.090;16.212;2023-12-22T10:27:52;95884.06;;;4.53;80.03
15674;BME280;7937;48.090;16.212;2023-12-22T10:30:56;95883.22;;;4.47;80.94
15674;BME280;7937;48.090;16.212;2023-12-22T10:34:00;95894.56;;;4.48;82.64
15674;BME280;7937;48.090;16.212;2023-12-22T10:37:03;95884.84;;;4.75;79.14
15674;BME280;7937;48.090;16.212;2023-12-22T10:40:06;95887.78;;;4.79;78.14
15674;BME280;7937;48.090;16.212;2023-12-22T10:43:10;95885.34;;;4.99;77.29
15674;BME280;7937;48.090;16.212;2023-12-22T10:46:11;95886.19;;;4.78;79.90
15674;BME280;7937;48.090;16.212;2023-12-22T10:49:14;95890.66;;;4.77;79.28
15674;BME280;7937;48.090;16.212;2023-12-22T10:52:18;95930.69;;;4.69;80.25
15674;BME280;7937;48.090;16.212;2023-12-22T10:55:20;95917.50;;;4.69;80.56
15674;BME280;7937;48.090;16.212;2023-12-22T10:58:23;95893.72;;;4.64;82.45
15674;BME280;7937;48.090;16.212;2023-12-22T11:01:29;95907.78;;;4.75;80.18
15674;BME280;7937;48.090;16.212;2023-12-22T11:04:36;95896.94;;;4.71;82.18
15674;BME280;7937;48.090;16.212;2023-12-22T11:07:41;95906.59;;;4.87;80.25
15674;BME280;7937;48.090;16.212;2023-12-22T11:10:44;95879.78;;;4.69;82.31
15674;BME280;7937;48.090;16.212;2023-12-22T11:13:50;95888.06;;;5.09;78.17
15674;BME280;7937;48.090;16.212;2023-12-22T11:16:53;95934.78;;;5.09;77.02
15674;BME280;7937;48.090;16.212;2023-12-22T11:19:56;95897.09;;;5.13;77.01
15674;BME280;7937;48.090;16.212;2023-12-22T11:23:00;95891.81;;;4.86;81.09
15674;BME280;7937;48.090;16.212;2023-12-22T11:26:04;95928.34;;;4.51;82.72
15674;BME280;7937;48.090;16.212;2023-12-22T11:29:07;95908.06;;;4.07;87.64
15674;BME280;7937;48.090;16.212;2023-12-22T11:32:10;95913.16;;;3.25;93.86
15674;BME280;7937;48.090;16.212;2023-12-22T11:35:13;95898.63;;;2.89;98.19
15674;BME280;7937;48.090;16.212;2023-12-22T11:38:16;95939.78;;;2.26;100.00
15674;BME280;7937;48.090;16.212;2023-12-22T11:41:25;95914.59;;;1.90;100.00
15674;BME280;7937;48.090;16.212;2023-12-22T11:44:29;95914.41;;;1.68;100.00
15674;BME280;7937;48.090;16.212;2023-12-22T11:47:31;95922.03;;;1.69;100.00
15674;BME280;7937;48.090;16.212;2023-12-22T11:50:34;95916.84;;;2.10;100.00
15674;BME280;7937;48.090;16.212;2023-12-22T11:53:37;95891.19;;;2.00;100.00
15674;BME280;7937;48.090;16.212;2023-12-22T11:56:39;95888.34;;;1.90;100.00
15674;BME280;7937;48.090;16.212;2023-12-22T11:59:41;95874.56;;;1.83;100.00
15674;BME280;7937;48.090;16.212;2023-12-22T12:02:54;95885.72;;;1.90;100.00
15674;BME280;7937;48.090;16.212;2023-12-22T12:09:45;95867.31;;;2.42;100.00
15674;BME280;7937;48.090;16.212;2023-12-22T12:12:47;95857.53;;;2.54;100.00
15674;BME280;7937;48.090;16.212;2023-12-22T12:15:50;95867.25;;;2.53;100.00
15674;BME280;7937;48.090;16.212;2023-12-22T12:18:54;95863.31;;;2.84;100.00
15674;BME280;7937;48.090;16.212;2023-12-22T12:21:56;95836.34;;;3.06;100.00
15674;BME280;7937;48.090;16.212;2023-12-22T12:24:58;95820.13;;;2.80;100.00
15674;BME280;7937;48.090;16.212;2023-12-22T12:28:01;95833.44;;;2.74;100.00
15674;BME280;7937;48.090;16.212;2023-12-22T12:31:08;95844.81;;;2.63;100.00
15674;BME280;7937;48.090;16.212;2023-12-22T12:34:10;95829.13;;;2.68;100.00
15674;BME280;7937;48.090;16.212;2023-12-22T12:37:13;95831.53;;;3.20;100.00
15674;BME280;7937;48.090;16.212;2023-12-22T12:40:19;95832.56;;;3.35;96.34
15674;BME280;7937;48.090;16.212;2023-12-22T12:43:22;95822.97;;;3.29;100.00
15674;BME280;7937;48.090;16.212;2023-12-22T12:46:32;95817.00;;;3.51;94.81
15674;BME280;7937;48.090;16.212;2023-12-22T12:49:35;95822.97;;;3.46;97.13
15674;BME280;7937;48.090;16.212;2023-12-22T12:52:37;95817.72;;;3.46;100.00
15674;BME280;7937;48.090;16.212;2023-12-22T12:55:39;95815.69;;;3.53;100.00
15674;BME280;7937;48.090;16.212;2023-12-22T12:58:42;95820.50;;;3.40;100.00
15674;BME280;7937;48.090;16.212;2023-12-22T13:01:46;95830.47;;;3.38;100.00
15674;BME280;7937;48.090;16.212;2023-12-22T13:04:48;95839.66;;;3.35;100.00
15674;BME280;7937;48.090;16.212;2023-12-22T13:07:51;95842.59;;;3.55;99.93
15674;BME280;7937;48.090;16.212;2023-12-22T13:11:00;95838.19;;;3.61;98.87
15674;BME280;7937;48.090;16.212;2023-12-22T13:14:03;95826.94;;;3.66;94.96
15674;BME280;7937;48.090;16.212;2023-12-22T13:17:07;95833.66;;;3.56;100.00
15674;BME280;7937;48.090;16.212;2023-12-22T13:20:12;95829.50;;;3.82;93.44
15674;BME280;7937;48.090;16.212;2023-12-22T13:23:18;95821.09;;;3.63;100.00
15674;BME280;7937;48.090;16.212;2023-12-22T13:26:20;95845.94;;;3.51;100.00
15674;BME280;7937;48.090;16.212;2023-12-22T13:29:22;95839.25;;;3.43;100.00
15674;BME280;7937;48.090;16.212;2023-12-22T13:32:24;95832.06;;;3.39;100.00
15674;BME280;7937;48.090;16.212;2023-12-22T13:35:26;95823.19;;;3.45;100.00
15674;BME280;7937;48.090;16.212;2023-12-22T13:38:30;95825.75;;;3.56;97.71
15674;BME280;7937;48.090;16.212;2023-12-22T13:41:40;95826.13;;;3.65;96.00
15674;BME280;7937;48.090;16.212;2023-12-22T13:44:45;95846.03;;;3.78;92.87
15674;BME280;7937;48.090;16.212;2023-12-22T13:47:51;95839.84;;;3.89;90.21
15674;BME280;7937;48.090;16.212;2023-12-22T13:50:58;95865.16;;;4.12;79.96
15674;BME280;7937;48.090;16.212;2023-12-22T13:54:03;95843.63;;;4.96;65.41
15674;BME280;7937;48.090;16.212;2023-12-22T13:57:06;95866.19;;;5.14;59.91
15674;BME280;7937;48.090;16.212;2023-12-22T14:03:23;95863.00;;;5.12;57.65
15674;BME280;7937;48.090;16.212;2023-12-22T14:06:26;95870.16;;;4.84;61.03
15674;BME280;7937;48.090;16.212;2023-12-22T14:09:29;95916.91;;;4.89;58.80
15674;BME280;7937;48.090;16.212;2023-12-22T14:12:36;95890.47;;;4.84;57.74
15674;BME280;7937;48.090;16.212;2023-12-22T14:15:41;95888.28;;;4.76;59.67
15674;BME280;7937;48.090;16.212;2023-12-22T14:18:46;95905.63;;;4.45;64.01
15674;BME280;7937;48.090;16.212;2023-12-22T14:21:50;95922.66;;;4.37;65.65
15674;BME280;7937;48.090;16.212;2023-12-22T14:24:53;95890.47;;;4.13;70.71
15674;BME280;7937;48.090;16.212;2023-12-22T14:27:55;95910.81;;;3.96;73.35
15674;BME280;7937;48.090;16.212;2023-12-22T14:30:59;95910.03;;;3.78;76.51
15674;BME280;7937;48.090;16.212;2023-12-22T14:34:01;95929.03;;;3.63;80.38
15674;BME280;7937;48.090;16.212;2023-12-22T14:37:03;95954.66;;;3.51;83.75
15674;BME280;7937;48.090;16.212;2023-12-22T14:40:07;95940.06;;;3.27;87.17
15674;BME280;7937;48.090;16.212;2023-12-22T14:43:09;95923.53;;;3.15;87.67
15674;BME280;7937;48.090;16.212;2023-12-22T14:46:11;95946.09;;;3.10;89.70
15674;BME280;7937;48.090;16.212;2023-12-22T14:49:13;95923.75;;;2.96;91.73
15674;BME280;7937;48.090;16.212;2023-12-22T14:52:15;95946.06;;;2.94;91.67
15674;BME280;7937;48.090;16.212;2023-12-22T14:55:18;95940.63;;;2.83;94.10
15674;BME280;7937;48.090;16.212;2023-12-22T14:58:20;95954.91;;;2.88;93.41
15674;BME280;7937;48.090;16.212;2023-12-22T15:01:22;95964.28;;;2.83;95.49
15674;BME280;7937;48.090;16.212;2023-12-22T15:04:24;95948.31;;;2.73;96.69
15674;BME280;7937;48.090;16.212;2023-12-22T15:07:27;95944.72;;;2.51;99.63
15674;BME280;7937;48.090;16.212;2023-12-22T15:10:29;95952.06;;;2.49;100.00
15674;BME280;7937;48.090;16.212;2023-12-22T15:13:31;95929.16;;;2.32;100.00
15674;BME280;7937;48.090;16.212;2023-12-22T15:16:33;95934.50;;;2.26;100.00
15674;BME280;7937;48.090;16.212;2023-12-22T15:19:41;95932.72;;;2.15;100.00
15674;BME280;7937;48.090;16.212;2023-12-22T15:22:46;95946.59;;;2.39;100.00
15674;BME280;7937;48.090;16.212;2023-12-22T15:25:49;95931.66;;;2.27;100.00
15674;BME280;7937;48.090;16.212;2023-12-22T15:28:52;95932.47;;;2.16;100.00
15674;BME280;7937;48.090;16.212;2023-12-22T15:31:54;95934.66;;;2.19;100.00
15674;BME280;7937;48.090;16.212;2023-12-22T15:35:02;95929.25;;;2.38;100.00
15674;BME280;7937;48.090;16.212;2023-12-22T15:38:04;95934.69;;;2.48;100.00
15674;BME280;7937;48.090;16.212;2023-12-22T15:41:06;95899.94;;;2.57;100.00
15674;BME280;7937;48.090;16.212;2023-12-22T15:44:09;95931.94;;;2.54;100.00
15674;BME280;7937;48.090;16.212;2023-12-22T15:47:11;95915.50;;;2.47;100.00
15674;BME280;7937;48.090;16.212;2023-12-22T15:50:13;95917.91;;;2.49;100.00
15674;BME280;7937;48.090;16.212;2023-12-22T15:53:15;95917.59;;;2.33;100.00
15674;BME280;7937;48.090;16.212;2023-12-22T15:56:18;95901.75;;;2.17;100.00
15674;BME280;7937;48.090;16.212;2023-12-22T15:59:20;95890.28;;;2.35;100.00
15674;BME280;7937;48.090;16.212;2023-12-22T16:02:27;95911.25;;;2.18;100.00
15674;BME280;7937;48.090;16.212;2023-12-22T16:05:29;95935.38;;;2.03;100.00
15674;BME280;7937;48.090;16.212;2023-12-22T16:08:31;95912.88;;;2.07;100.00
15674;BME280;7937;48.090;16.212;2023-12-22T16:11:39;95922.06;;;2.21;100.00
15674;BME280;7937;48.090;16.212;2023-12-22T16:14:41;95879.63;;;2.41;100.00
15674;BME280;7937;48.090;16.212;2023-12-22T16:17:43;95865.91;;;2.11;100.00
15674;BME280;7937;48.090;16.212;2023-12-22T16:20:45;95871.50;;;2.14;100.00
15674;BME280;7937;48.090;16.212;2023-12-22T16:23:48;95888.41;;;2.06;100.00
15674;BME280;7937;48.090;16.212;2023-12-22T16:26:50;95905.97;;;2.29;100.00
15674;BME280;7937;48.090;16.212;2023-12-22T16:29:52;95905.59;;;2.38;100.00